ICE418 BIKF-EIDW
Flight info
| Callsign | ICE418 |
|---|---|
| Flight time | N/A |
| Altitude | 37000 |
| Route | RIMUM1A RIMUM DCT RUMUX DCT RAPAX DCT ETILO/N0457F370 DCT EVNAL DCT TUXOS DCT BELZU DCT NUMPI P620 NIMAT NIMAT4L |
| Aircraft | B38M/M-SDE1FGHILORVWXY/HB1 |
Departure
| Time | 2026-05-07 16:32 |
|---|---|
| Airport | Keflavik International Airport (BIKF) |
Arrival
| Time | N/A |
|---|---|
| Airport | Dublin Airport (EIDW) |
| Time | Latitude | Longitude | Altitude | Speed | Heading |
|---|---|---|---|---|---|
| 2026-05-07 16:13 | 63.99280 | -22.62192 | 145 ft | 0 kts | 316° |
| 2026-05-07 16:20 | 63.99278 | -22.62186 | 145 ft | 3 kts | 316° |
| 2026-05-07 16:21 | 63.99259 | -22.62143 | 145 ft | 4 kts | 306° |
| 2026-05-07 16:21 | 63.99247 | -22.62104 | 145 ft | 4 kts | 306° |
| 2026-05-07 16:21 | 63.99239 | -22.62053 | 145 ft | 4 kts | 268° |
| 2026-05-07 16:21 | 63.99246 | -22.62003 | 145 ft | 4 kts | 218° |
| 2026-05-07 16:22 | 63.99269 | -22.61986 | 145 ft | 4 kts | 181° |
| 2026-05-07 16:22 | 63.99294 | -22.61985 | 145 ft | 4 kts | 180° |
| 2026-05-07 16:22 | 63.99321 | -22.61986 | 145 ft | 4 kts | 179° |
| 2026-05-07 16:22 | 63.99337 | -22.61986 | 145 ft | 0 kts | 179° |
| 2026-05-07 16:23 | 63.99338 | -22.61986 | 146 ft | 1 kts | 179° |
| 2026-05-07 16:23 | 63.99340 | -22.61986 | 145 ft | 0 kts | 179° |
| 2026-05-07 16:25 | 63.99315 | -22.61986 | 145 ft | 11 kts | 180° |
| 2026-05-07 16:25 | 63.99211 | -22.61986 | 145 ft | 15 kts | 179° |
| 2026-05-07 16:25 | 63.99171 | -22.61880 | 146 ft | 13 kts | 88° |
| 2026-05-07 16:25 | 63.99171 | -22.61620 | 151 ft | 18 kts | 88° |
| 2026-05-07 16:26 | 63.99173 | -22.61426 | 156 ft | 8 kts | 90° |
| 2026-05-07 16:26 | 63.99173 | -22.61303 | 159 ft | 7 kts | 91° |
| 2026-05-07 16:26 | 63.99173 | -22.61184 | 161 ft | 10 kts | 91° |
| 2026-05-07 16:26 | 63.99173 | -22.61070 | 164 ft | 9 kts | 90° |
| 2026-05-07 16:27 | 63.99143 | -22.60950 | 167 ft | 10 kts | 158° |
| 2026-05-07 16:27 | 63.99055 | -22.60939 | 171 ft | 13 kts | 181° |
| 2026-05-07 16:27 | 63.98955 | -22.60941 | 173 ft | 19 kts | 179° |
| 2026-05-07 16:27 | 63.98786 | -22.60939 | 168 ft | 28 kts | 178° |
| 2026-05-07 16:28 | 63.98593 | -22.60938 | 171 ft | 27 kts | 179° |
| 2026-05-07 16:28 | 63.98403 | -22.60941 | 168 ft | 28 kts | 180° |
| 2026-05-07 16:28 | 63.98200 | -22.60942 | 168 ft | 30 kts | 180° |
| 2026-05-07 16:28 | 63.97991 | -22.60941 | 171 ft | 30 kts | 180° |
| 2026-05-07 16:29 | 63.97773 | -22.60942 | 172 ft | 32 kts | 180° |
| 2026-05-07 16:29 | 63.97570 | -22.60941 | 169 ft | 25 kts | 180° |
| 2026-05-07 16:29 | 63.97390 | -22.60941 | 166 ft | 27 kts | 181° |
| 2026-05-07 16:29 | 63.97198 | -22.60941 | 160 ft | 29 kts | 180° |
| 2026-05-07 16:30 | 63.96983 | -22.60940 | 152 ft | 33 kts | 180° |
| 2026-05-07 16:30 | 63.96768 | -22.60937 | 144 ft | 26 kts | 179° |
| 2026-05-07 16:30 | 63.96625 | -22.60939 | 139 ft | 16 kts | 180° |
| 2026-05-07 16:30 | 63.96534 | -22.60940 | 138 ft | 10 kts | 180° |
| 2026-05-07 16:31 | 63.96468 | -22.60879 | 138 ft | 12 kts | 115° |
| 2026-05-07 16:31 | 63.96463 | -22.60696 | 144 ft | 9 kts | 96° |
| 2026-05-07 16:31 | 63.96491 | -22.60546 | 148 ft | 13 kts | 10° |
| 2026-05-07 16:31 | 63.96593 | -22.60541 | 151 ft | 19 kts | 360° |
| 2026-05-07 16:32 | 63.97010 | -22.60542 | 163 ft | 101 kts | 359° |
| 2026-05-07 16:32 | 63.97935 | -22.60538 | 303 ft | 157 kts | 1° |
| 2026-05-07 16:32 | 63.99062 | -22.60492 | 1250 ft | 162 kts | 3° |
| 2026-05-07 16:32 | 64.00166 | -22.60511 | 2467 ft | 167 kts | 1° |
| 2026-05-07 16:33 | 64.01430 | -22.60545 | 3131 ft | 192 kts | 3° |
| 2026-05-07 16:33 | 64.02802 | -22.60530 | 4166 ft | 197 kts | 3° |
| 2026-05-07 16:33 | 64.04171 | -22.60512 | 5269 ft | 203 kts | 3° |
| 2026-05-07 16:33 | 64.05624 | -22.60082 | 6034 ft | 219 kts | 23° |
| 2026-05-07 16:34 | 64.06739 | -22.57735 | 6869 ft | 230 kts | 63° |
| 2026-05-07 16:34 | 64.06975 | -22.54094 | 7687 ft | 241 kts | 91° |
| 2026-05-07 16:34 | 64.06821 | -22.51503 | 7734 ft | 243 kts | 95° |
| 2026-05-07 16:34 | 64.06627 | -22.47722 | 7864 ft | 245 kts | 92° |
| 2026-05-07 16:35 | 64.06137 | -22.43881 | 7873 ft | 262 kts | 120° |
| 2026-05-07 16:35 | 64.04765 | -22.41092 | 7998 ft | 272 kts | 152° |
| 2026-05-07 16:35 | 64.02925 | -22.39862 | 8149 ft | 280 kts | 166° |
| 2026-05-07 16:35 | 64.00998 | -22.38924 | 8163 ft | 284 kts | 166° |
| 2026-05-07 16:36 | 63.99070 | -22.37970 | 8199 ft | 283 kts | 166° |
| 2026-05-07 16:36 | 63.97143 | -22.37018 | 8207 ft | 286 kts | 165° |
| 2026-05-07 16:36 | 63.95181 | -22.36044 | 8762 ft | 288 kts | 165° |
| 2026-05-07 16:36 | 63.93221 | -22.35076 | 9872 ft | 291 kts | 166° |
| 2026-05-07 16:37 | 63.91208 | -22.34084 | 10654 ft | 304 kts | 166° |
| 2026-05-07 16:37 | 63.89076 | -22.33031 | 11178 ft | 323 kts | 166° |
| 2026-05-07 16:37 | 63.86805 | -22.31916 | 11640 ft | 343 kts | 167° |
| 2026-05-07 16:37 | 63.84422 | -22.30747 | 12265 ft | 356 kts | 167° |
| 2026-05-07 16:38 | 63.81968 | -22.29544 | 13080 ft | 361 kts | 167° |
| 2026-05-07 16:38 | 63.79499 | -22.28335 | 13951 ft | 366 kts | 167° |
| 2026-05-07 16:38 | 63.77024 | -22.27127 | 14660 ft | 371 kts | 168° |
| 2026-05-07 16:38 | 63.74487 | -22.25888 | 15407 ft | 375 kts | 168° |
| 2026-05-07 16:39 | 63.71927 | -22.24643 | 16152 ft | 378 kts | 168° |
| 2026-05-07 16:39 | 63.69342 | -22.23386 | 16853 ft | 383 kts | 168° |
| 2026-05-07 16:39 | 63.66721 | -22.22116 | 17573 ft | 387 kts | 168° |
| 2026-05-07 16:39 | 63.64075 | -22.20835 | 18269 ft | 390 kts | 168° |
| 2026-05-07 16:40 | 63.61401 | -22.19542 | 18901 ft | 394 kts | 168° |
| 2026-05-07 16:40 | 63.58703 | -22.18241 | 19501 ft | 397 kts | 168° |
| 2026-05-07 16:40 | 63.56017 | -22.16950 | 20079 ft | 401 kts | 168° |
| 2026-05-07 16:40 | 63.53289 | -22.15624 | 20658 ft | 404 kts | 166° |
| 2026-05-07 16:41 | 63.50660 | -22.13357 | 21242 ft | 406 kts | 154° |
| 2026-05-07 16:41 | 63.48089 | -22.10663 | 21788 ft | 410 kts | 155° |
| 2026-05-07 16:41 | 63.45492 | -22.07966 | 22367 ft | 413 kts | 154° |
| 2026-05-07 16:41 | 63.42864 | -22.05230 | 22894 ft | 417 kts | 154° |
| 2026-05-07 16:42 | 63.40228 | -22.02486 | 23445 ft | 420 kts | 154° |
| 2026-05-07 16:42 | 63.37560 | -21.99714 | 23931 ft | 424 kts | 154° |
| 2026-05-07 16:42 | 63.34876 | -21.96930 | 24386 ft | 426 kts | 154° |
| 2026-05-07 16:42 | 63.32173 | -21.94131 | 24806 ft | 430 kts | 154° |
| 2026-05-07 16:43 | 63.29460 | -21.91329 | 25243 ft | 433 kts | 154° |
| 2026-05-07 16:43 | 63.26717 | -21.88502 | 25615 ft | 437 kts | 154° |
| 2026-05-07 16:43 | 63.23951 | -21.85656 | 26027 ft | 439 kts | 154° |
| 2026-05-07 16:43 | 63.21203 | -21.82835 | 26417 ft | 443 kts | 154° |
| 2026-05-07 16:44 | 63.18390 | -21.79955 | 26824 ft | 445 kts | 154° |
| 2026-05-07 16:44 | 63.15569 | -21.77071 | 27221 ft | 448 kts | 154° |
| 2026-05-07 16:44 | 63.12727 | -21.74172 | 27616 ft | 451 kts | 154° |
| 2026-05-07 16:44 | 63.09870 | -21.71246 | 27997 ft | 453 kts | 153° |
| 2026-05-07 16:45 | 63.07267 | -21.67413 | 28365 ft | 453 kts | 136° |
| 2026-05-07 16:45 | 63.05090 | -21.62386 | 28680 ft | 455 kts | 131° |
| 2026-05-07 16:45 | 63.02944 | -21.57213 | 29033 ft | 458 kts | 130° |
| 2026-05-07 16:45 | 63.00808 | -21.51997 | 29392 ft | 460 kts | 130° |
| 2026-05-07 16:46 | 62.98667 | -21.46726 | 29747 ft | 463 kts | 130° |
| 2026-05-07 16:46 | 62.96505 | -21.41391 | 30019 ft | 467 kts | 129° |
| 2026-05-07 16:46 | 62.94338 | -21.36045 | 30336 ft | 470 kts | 130° |
| 2026-05-07 16:46 | 62.92187 | -21.30749 | 30595 ft | 472 kts | 130° |
| 2026-05-07 16:47 | 62.89999 | -21.25377 | 30862 ft | 475 kts | 130° |
| 2026-05-07 16:47 | 62.87790 | -21.19963 | 31118 ft | 477 kts | 130° |
| 2026-05-07 16:47 | 62.85569 | -21.14536 | 31416 ft | 478 kts | 130° |
| 2026-05-07 16:47 | 62.83343 | -21.09106 | 31774 ft | 478 kts | 130° |
| 2026-05-07 16:48 | 62.81122 | -21.03704 | 32126 ft | 478 kts | 130° |
| 2026-05-07 16:48 | 62.78896 | -20.98303 | 32478 ft | 478 kts | 130° |
| 2026-05-07 16:48 | 62.76672 | -20.92920 | 32853 ft | 477 kts | 130° |
| 2026-05-07 16:48 | 62.74453 | -20.87561 | 33212 ft | 477 kts | 130° |
| 2026-05-07 16:49 | 62.72228 | -20.82202 | 33558 ft | 477 kts | 130° |
| 2026-05-07 16:49 | 62.69997 | -20.76840 | 33894 ft | 477 kts | 130° |
| 2026-05-07 16:49 | 62.67766 | -20.71493 | 34219 ft | 477 kts | 130° |
| 2026-05-07 16:49 | 62.65536 | -20.66159 | 34480 ft | 477 kts | 130° |
| 2026-05-07 16:50 | 62.63300 | -20.60825 | 34737 ft | 477 kts | 130° |
| 2026-05-07 16:50 | 62.61064 | -20.55504 | 35000 ft | 477 kts | 130° |